createdAt,value
2017-07-27T00:01:27.349Z,83.86
2017-07-27T00:03:55.696Z,83.90
2017-07-27T00:06:24.320Z,84.14
2017-07-27T00:08:52.645Z,83.36
2017-07-27T00:11:20.974Z,83.58
2017-07-27T00:13:49.320Z,83.52
2017-07-27T00:16:17.663Z,83.61
2017-07-27T00:18:46.031Z,83.73
2017-07-27T00:21:14.377Z,83.30
2017-07-27T00:23:42.704Z,83.83
2017-07-27T00:26:11.049Z,83.90
2017-07-27T00:28:39.382Z,84.22
2017-07-27T00:31:07.980Z,84.50
2017-07-27T00:33:36.318Z,84.61
2017-07-27T00:36:04.651Z,85.02
2017-07-27T00:38:33.024Z,84.87
2017-07-27T00:41:01.340Z,85.01
2017-07-27T00:43:29.693Z,85.29
2017-07-27T00:45:58.025Z,85.50
2017-07-27T00:48:26.376Z,85.31
2017-07-27T00:50:54.718Z,85.30
2017-07-27T00:53:23.041Z,85.47
2017-07-27T00:55:51.383Z,85.57
2017-07-27T00:58:19.705Z,86.06
2017-07-27T01:00:48.027Z,85.91
2017-07-27T01:03:16.378Z,85.71
2017-07-27T01:05:44.717Z,85.90
2017-07-27T01:08:13.072Z,85.71
2017-07-27T01:10:41.416Z,86.04
2017-07-27T01:13:09.770Z,86.13
2017-07-27T01:15:38.110Z,85.84
2017-07-27T01:18:06.456Z,86.05
2017-07-27T01:20:35.097Z,86.27
2017-07-27T01:23:03.434Z,86.11
2017-07-27T01:25:31.774Z,86.61
2017-07-27T01:28:00.125Z,86.51
2017-07-27T01:30:28.448Z,86.46
2017-07-27T01:32:56.798Z,86.35
2017-07-27T01:35:25.128Z,86.32
2017-07-27T01:37:53.456Z,86.57
2017-07-27T01:40:21.810Z,86.55
2017-07-27T01:42:50.141Z,86.83
2017-07-27T01:45:18.490Z,86.55
2017-07-27T01:47:46.822Z,86.54
2017-07-27T01:50:15.168Z,87.40
2017-07-27T01:52:43.549Z,87.63
2017-07-27T01:55:11.887Z,87.12
2017-07-27T01:57:40.227Z,87.06
2017-07-27T02:00:10.195Z,86.95
2017-07-27T02:02:38.569Z,87.54
2017-07-27T02:05:06.962Z,87.86
2017-07-27T02:07:35.295Z,88.08
2017-07-27T02:10:03.922Z,87.91
2017-07-27T02:12:32.261Z,87.88
2017-07-27T02:15:00.603Z,87.86
2017-07-27T02:17:28.960Z,87.68
2017-07-27T02:19:57.303Z,87.51
2017-07-27T02:22:25.672Z,87.38
2017-07-27T02:24:54.036Z,88.31
2017-07-27T02:27:22.375Z,88.22
2017-07-27T02:29:50.702Z,88.20
2017-07-27T02:32:19.041Z,88.04
2017-07-27T02:34:47.396Z,88.15
2017-07-27T02:37:16.037Z,88.69
2017-07-27T02:39:44.381Z,88.88
2017-07-27T02:42:12.927Z,88.45
2017-07-27T02:44:41.266Z,88.39
2017-07-27T02:47:09.583Z,88.80
2017-07-27T02:49:37.920Z,88.34
2017-07-27T02:52:06.245Z,88.59
2017-07-27T02:54:34.590Z,88.55
2017-07-27T02:57:02.956Z,88.43
2017-07-27T02:59:31.270Z,88.50
2017-07-27T03:01:59.614Z,88.55
2017-07-27T03:04:27.963Z,88.35
2017-07-27T03:06:56.288Z,87.82
2017-07-27T03:09:24.620Z,87.88
2017-07-27T03:11:52.951Z,87.94
2017-07-27T03:14:21.535Z,87.89
2017-07-27T03:16:49.842Z,88.48
2017-07-27T03:19:18.174Z,88.86
2017-07-27T03:21:46.506Z,88.89
2017-07-27T03:24:14.828Z,88.31
2017-07-27T03:26:43.181Z,88.12
2017-07-27T03:29:11.509Z,87.86
2017-07-27T03:31:39.855Z,87.99
2017-07-27T03:34:08.204Z,88.06
2017-07-27T03:36:36.520Z,88.12
2017-07-27T03:39:04.876Z,87.79
2017-07-27T03:41:33.191Z,88.04
2017-07-27T03:44:01.551Z,87.81
2017-07-27T03:46:29.903Z,87.99
2017-07-27T03:48:58.243Z,87.86
2017-07-27T03:51:26.589Z,87.75
2017-07-27T03:53:54.902Z,88.12
2017-07-27T03:56:23.246Z,88.44
2017-07-27T03:58:51.596Z,88.10
2017-07-27T04:01:19.930Z,87.91
2017-07-27T04:03:48.275Z,87.92
2017-07-27T04:06:16.616Z,87.48
2017-07-27T04:08:44.949Z,87.45
2017-07-27T04:11:13.302Z,87.34
2017-07-27T04:13:41.934Z,87.59
2017-07-27T04:16:10.542Z,87.48
2017-07-27T04:18:38.863Z,87.86
2017-07-27T04:21:07.187Z,87.89
2017-07-27T04:23:35.544Z,87.85
2017-07-27T04:26:03.883Z,87.66
2017-07-27T04:28:32.247Z,87.73
2017-07-27T04:31:00.596Z,87.92
2017-07-27T04:33:28.937Z,87.64
2017-07-27T04:35:57.277Z,87.35
2017-07-27T04:38:25.599Z,87.27
2017-07-27T04:40:54.865Z,87.59
2017-07-27T04:43:23.194Z,87.02
2017-07-27T04:45:51.520Z,86.85
2017-07-27T04:48:20.638Z,86.98
2017-07-27T04:50:48.974Z,86.94
2017-07-27T04:53:17.580Z,86.94
2017-07-27T04:55:45.922Z,86.89
2017-07-27T04:58:14.257Z,87.17
2017-07-27T05:00:42.611Z,86.96
2017-07-27T05:03:10.928Z,87.32
2017-07-27T05:05:39.267Z,87.51
2017-07-27T05:08:08.221Z,87.93
2017-07-27T05:10:36.566Z,87.49
2017-07-27T05:13:05.678Z,87.90
2017-07-27T05:15:34.019Z,87.74
2017-07-27T05:18:02.355Z,87.53
2017-07-27T05:20:30.671Z,87.33
2017-07-27T05:22:59.003Z,86.94
2017-07-27T05:25:27.334Z,87.35
2017-07-27T05:27:55.667Z,86.90
2017-07-27T05:30:24.332Z,86.65
2017-07-27T05:32:52.646Z,86.23
2017-07-27T05:35:20.959Z,85.94
2017-07-27T05:37:49.296Z,86.12
2017-07-27T05:40:17.623Z,86.11
2017-07-27T05:42:45.968Z,85.98
2017-07-27T05:45:14.307Z,85.88
2017-07-27T05:47:42.663Z,86.38
2017-07-27T05:50:11.027Z,86.54
2017-07-27T05:52:39.363Z,86.53
2017-07-27T05:55:08.172Z,86.74
2017-07-27T05:57:36.522Z,87.29
2017-07-27T06:00:04.863Z,86.74
2017-07-27T06:02:33.207Z,86.56
2017-07-27T06:05:01.548Z,87.09
2017-07-27T06:07:29.898Z,87.05
2017-07-27T06:09:58.635Z,86.97
2017-07-27T06:12:26.966Z,86.90
2017-07-27T06:14:55.299Z,86.85
2017-07-27T06:17:23.629Z,86.75
2017-07-27T06:19:51.991Z,86.66
2017-07-27T06:22:20.357Z,86.53
2017-07-27T06:24:48.703Z,86.29
2017-07-27T06:27:17.057Z,86.02
2017-07-27T06:29:45.405Z,86.17
2017-07-27T06:32:13.753Z,85.83
2017-07-27T06:34:42.096Z,85.64
2017-07-27T06:37:11.188Z,86.61
2017-07-27T06:39:39.543Z,86.39
2017-07-27T06:42:07.883Z,85.62
2017-07-27T06:44:36.484Z,85.75
2017-07-27T06:47:04.792Z,85.28
2017-07-27T06:49:33.122Z,85.68
2017-07-27T06:52:01.786Z,85.24
2017-07-27T06:54:30.213Z,84.75
2017-07-27T06:56:58.559Z,84.19
2017-07-27T06:59:26.919Z,83.91
2017-07-27T07:01:55.259Z,84.50
2017-07-27T07:04:23.618Z,83.66
2017-07-27T07:06:51.956Z,83.26
2017-07-27T07:09:21.045Z,83.55
2017-07-27T07:11:49.375Z,83.20
2017-07-27T07:14:17.698Z,83.52
2017-07-27T07:16:46.046Z,83.78
2017-07-27T07:19:14.403Z,83.21
2017-07-27T07:21:42.758Z,82.93
2017-07-27T07:24:11.101Z,82.84
2017-07-27T07:26:39.424Z,83.41
2017-07-27T07:29:07.758Z,82.20
2017-07-27T07:31:36.071Z,82.37
2017-07-27T07:34:05.168Z,81.75
2017-07-27T07:36:33.483Z,82.02
2017-07-27T07:39:01.829Z,81.89
2017-07-27T07:41:30.165Z,81.27
2017-07-27T07:43:58.988Z,81.26
2017-07-27T07:46:27.308Z,81.14
2017-07-27T07:48:55.640Z,80.94
2017-07-27T07:51:24.763Z,80.90
2017-07-27T07:53:53.073Z,81.29
2017-07-27T07:56:21.803Z,81.14
2017-07-27T07:58:50.134Z,80.64
2017-07-27T08:01:18.463Z,80.83
2017-07-27T08:03:47.581Z,80.85
2017-07-27T08:06:15.917Z,80.79
2017-07-27T08:09:01.848Z,80.42
2017-07-27T08:11:30.189Z,80.02
2017-07-27T08:13:58.522Z,80.21
2017-07-27T08:16:27.306Z,80.44
2017-07-27T08:18:55.636Z,79.83
2017-07-27T08:21:23.976Z,80.21
2017-07-27T08:23:52.339Z,79.84
2017-07-27T08:26:20.668Z,80.26
2017-07-27T08:28:49.269Z,79.87
2017-07-27T08:31:18.263Z,80.34
2017-07-27T08:33:46.578Z,80.49
2017-07-27T08:36:14.910Z,79.80
2017-07-27T08:38:43.250Z,79.94
2017-07-27T08:41:11.612Z,79.62
2017-07-27T08:43:39.942Z,80.40
2017-07-27T08:46:08.302Z,80.06
2017-07-27T08:48:36.620Z,80.39
2017-07-27T08:51:04.950Z,80.12
2017-07-27T08:53:33.286Z,80.50
2017-07-27T08:56:01.613Z,80.03
2017-07-27T08:58:29.978Z,79.26
2017-07-27T09:00:58.308Z,79.05
2017-07-27T09:03:26.664Z,79.06
2017-07-27T09:05:55.001Z,79.05
2017-07-27T09:08:23.884Z,79.18
2017-07-27T09:10:52.225Z,79.83
2017-07-27T09:13:20.535Z,79.77
2017-07-27T09:15:49.638Z,79.71
2017-07-27T09:18:17.964Z,81.07
2017-07-27T09:20:46.326Z,81.12
2017-07-27T09:23:14.661Z,81.66
2017-07-27T09:25:43.014Z,81.58
2017-07-27T09:28:11.357Z,81.90
2017-07-27T09:30:39.675Z,82.70
2017-07-27T09:33:08.013Z,81.82
2017-07-27T09:35:37.513Z,82.39
2017-07-27T09:38:05.852Z,81.64
2017-07-27T09:40:34.167Z,81.34
2017-07-27T09:43:02.966Z,81.25
2017-07-27T09:45:31.298Z,82.72
2017-07-27T09:47:59.610Z,82.38
2017-07-27T09:50:27.954Z,81.83
2017-07-27T09:52:56.269Z,82.82
2017-07-27T09:55:24.611Z,80.93
2017-07-27T09:57:58.234Z,81.70
2017-07-27T10:00:26.586Z,81.16
2017-07-27T10:02:54.919Z,80.20
2017-07-27T10:05:23.255Z,79.26
2017-07-27T10:07:51.594Z,79.38
2017-07-27T10:10:19.910Z,78.00
2017-07-27T10:12:48.253Z,77.53
2017-07-27T10:15:16.572Z,76.94
2017-07-27T10:17:44.934Z,78.01
2017-07-27T10:20:13.272Z,78.06
2017-07-27T10:22:42.049Z,77.15
2017-07-27T10:25:10.365Z,77.89
2017-07-27T10:27:38.680Z,78.33
2017-07-27T10:30:07.040Z,79.42
2017-07-27T10:32:35.394Z,79.73
2017-07-27T10:35:03.754Z,79.79
2017-07-27T10:37:32.087Z,81.10
2017-07-27T10:40:00.443Z,82.06
2017-07-27T10:42:28.776Z,82.63
2017-07-27T10:44:57.111Z,82.41
2017-07-27T10:47:25.465Z,81.14
2017-07-27T10:49:53.792Z,80.64
2017-07-27T10:52:22.148Z,80.15
2017-07-27T10:54:50.481Z,79.91
2017-07-27T10:57:18.832Z,79.03
2017-07-27T10:59:47.193Z,79.48
2017-07-27T11:02:15.552Z,79.44
2017-07-27T11:04:43.894Z,79.16
2017-07-27T11:07:12.258Z,78.63
2017-07-27T11:09:40.589Z,78.06
2017-07-27T11:12:09.342Z,77.49
2017-07-27T11:14:37.693Z,76.13
2017-07-27T11:17:06.033Z,75.48
2017-07-27T11:19:34.377Z,75.35
2017-07-27T11:22:03.473Z,74.17
2017-07-27T11:24:31.824Z,74.65
2017-07-27T11:27:00.171Z,74.77
2017-07-27T11:29:28.516Z,73.67
2017-07-27T11:31:57.619Z,74.69
2017-07-27T11:34:25.968Z,74.28
2017-07-27T11:36:54.334Z,73.76
2017-07-27T11:39:22.656Z,73.13
2017-07-27T11:41:51.004Z,72.10
2017-07-27T11:44:19.347Z,72.04
2017-07-27T11:46:47.703Z,72.46
2017-07-27T11:49:16.102Z,71.70
2017-07-27T11:51:44.448Z,71.51
2017-07-27T11:54:13.697Z,71.50
2017-07-27T11:56:42.032Z,71.62
2017-07-27T11:59:10.389Z,71.03
2017-07-27T12:01:38.714Z,69.85
2017-07-27T12:04:07.044Z,70.01
2017-07-27T12:06:35.367Z,69.04
2017-07-27T12:09:03.726Z,69.66
2017-07-27T12:11:32.568Z,69.88
2017-07-27T12:14:00.886Z,69.11
2017-07-27T12:16:29.995Z,69.45
2017-07-27T12:18:58.349Z,67.11
2017-07-27T12:21:26.714Z,67.03
2017-07-27T12:23:55.068Z,66.51
2017-07-27T12:26:23.802Z,66.99
2017-07-27T12:28:52.127Z,67.00
2017-07-27T12:31:20.440Z,66.83
2017-07-27T12:33:48.804Z,67.00
2017-07-27T12:36:17.139Z,66.15
2017-07-27T12:38:45.476Z,66.07
2017-07-27T12:41:13.825Z,66.65
2017-07-27T12:43:42.167Z,67.86
2017-07-27T12:46:10.488Z,67.52
2017-07-27T12:48:39.218Z,69.75
2017-07-27T12:51:07.554Z,73.12
2017-07-27T12:53:35.866Z,73.85
2017-07-27T12:56:04.203Z,75.98
2017-07-27T12:58:32.535Z,74.74
2017-07-27T13:01:00.869Z,76.06
2017-07-27T13:03:29.209Z,76.23
2017-07-27T13:05:57.558Z,78.25
2017-07-27T13:08:25.898Z,77.26
2017-07-27T13:10:55.023Z,78.75
2017-07-27T13:13:23.343Z,77.13
2017-07-27T13:15:51.688Z,77.45
2017-07-27T13:18:20.054Z,77.79
2017-07-27T13:20:48.395Z,77.25
2017-07-27T13:23:16.741Z,75.08
2017-07-27T13:25:45.837Z,75.69
2017-07-27T13:28:14.191Z,75.30
2017-07-27T13:30:43.100Z,76.92
2017-07-27T13:33:12.487Z,74.66
2017-07-27T13:35:41.345Z,73.29
2017-07-27T13:38:10.282Z,73.40
2017-07-27T13:40:39.377Z,74.72
2017-07-27T13:43:08.291Z,73.09
2017-07-27T13:45:37.211Z,68.45
2017-07-27T13:48:05.528Z,68.94
2017-07-27T13:50:33.882Z,69.56
2017-07-27T13:53:02.212Z,69.47
2017-07-27T13:55:30.551Z,67.79
2017-07-27T13:57:58.915Z,69.48
2017-07-27T14:00:27.258Z,68.28
2017-07-27T14:02:55.600Z,66.89
2017-07-27T14:05:23.943Z,65.62
2017-07-27T14:07:52.305Z,68.21
2017-07-27T14:10:20.658Z,67.90
2017-07-27T14:12:49.009Z,67.79
2017-07-27T14:15:17.342Z,67.81
2017-07-27T14:17:45.703Z,67.08
2017-07-27T14:20:14.020Z,66.89
2017-07-27T14:22:42.378Z,66.04
2017-07-27T14:25:10.709Z,67.86
2017-07-27T14:27:39.045Z,68.47
2017-07-27T14:30:07.373Z,68.80
2017-07-27T14:32:36.032Z,68.79
2017-07-27T14:35:04.427Z,68.05
2017-07-27T14:37:32.739Z,67.69
2017-07-27T14:40:01.256Z,69.20
2017-07-27T14:42:29.596Z,69.86
2017-07-27T14:44:57.948Z,67.23
2017-07-27T14:47:26.277Z,66.98
2017-07-27T14:49:55.424Z,66.50
2017-07-27T14:52:23.770Z,67.05
2017-07-27T14:54:52.122Z,66.78
2017-07-27T14:57:20.472Z,67.00
2017-07-27T14:59:48.810Z,68.43
2017-07-27T15:02:17.944Z,67.60
2017-07-27T15:04:46.305Z,68.68
2017-07-27T15:07:14.634Z,68.57
2017-07-27T15:09:42.978Z,70.05
2017-07-27T15:12:11.315Z,72.58
2017-07-27T15:14:40.731Z,74.78
2017-07-27T15:17:09.065Z,77.49
2017-07-27T15:19:37.391Z,75.06
2017-07-27T15:22:05.741Z,75.90
2017-07-27T15:24:34.077Z,78.31
2017-07-27T15:27:03.103Z,80.96
2017-07-27T15:29:31.447Z,82.87
2017-07-27T15:32:00.219Z,81.96
2017-07-27T15:34:28.556Z,81.36
2017-07-27T15:36:56.901Z,81.46
2017-07-27T15:39:25.768Z,82.12
2017-07-27T15:41:54.191Z,80.99
2017-07-27T15:44:22.542Z,81.52
2017-07-27T15:46:50.885Z,82.52
2017-07-27T15:49:19.230Z,79.86
2017-07-27T15:51:47.612Z,81.78
2017-07-27T15:54:16.685Z,82.72
2017-07-27T15:56:45.449Z,83.69
2017-07-27T15:59:14.585Z,82.75
2017-07-27T16:01:42.921Z,83.63
2017-07-27T16:04:11.287Z,84.77
2017-07-27T16:06:40.393Z,84.80
2017-07-27T16:09:08.771Z,83.92
2017-07-27T16:11:37.130Z,85.49
2017-07-27T16:14:05.464Z,85.61
2017-07-27T16:16:33.836Z,80.60
2017-07-27T16:19:02.186Z,80.83
2017-07-27T16:21:30.507Z,80.27
2017-07-27T16:23:58.840Z,83.62
2017-07-27T16:26:27.156Z,84.54
2017-07-27T16:28:55.762Z,85.43
2017-07-27T16:31:24.085Z,84.22
2017-07-27T16:33:52.413Z,83.39
2017-07-27T16:36:20.787Z,82.74
2017-07-27T16:38:49.104Z,85.84
2017-07-27T16:41:17.729Z,85.69
2017-07-27T16:43:46.105Z,84.96
2017-07-27T16:46:14.441Z,85.54
2017-07-27T16:48:42.810Z,86.37
2017-07-27T16:51:11.179Z,86.49
2017-07-27T16:53:39.495Z,86.18
2017-07-27T16:56:07.944Z,85.94
2017-07-27T16:58:36.259Z,86.77
2017-07-27T17:01:04.610Z,87.45
2017-07-27T17:03:32.950Z,87.44
2017-07-27T17:06:01.305Z,87.20
2017-07-27T17:08:29.641Z,86.55
2017-07-27T17:10:57.981Z,87.68
2017-07-27T17:13:26.608Z,88.02
2017-07-27T17:15:54.947Z,87.61
2017-07-27T17:18:23.773Z,87.43
2017-07-27T17:20:52.169Z,87.08
2017-07-27T17:23:20.508Z,87.75
2017-07-27T17:25:49.136Z,86.51
2017-07-27T17:28:17.462Z,86.25
2017-07-27T17:30:45.811Z,87.22
2017-07-27T17:33:14.180Z,85.26
2017-07-27T17:35:42.521Z,84.18
2017-07-27T17:38:10.863Z,84.75
2017-07-27T17:40:39.494Z,83.37
2017-07-27T17:43:07.826Z,83.91
2017-07-27T17:45:36.163Z,85.49
2017-07-27T17:48:04.507Z,86.04
2017-07-27T17:50:32.826Z,86.66
2017-07-27T17:53:01.151Z,86.03
2017-07-27T17:55:29.542Z,86.92
2017-07-27T17:57:57.863Z,87.73
2017-07-27T18:00:27.412Z,87.67
2017-07-27T18:02:55.757Z,87.89
2017-07-27T18:05:24.085Z,88.24
2017-07-27T18:07:52.446Z,88.33
2017-07-27T18:10:21.260Z,88.11
2017-07-27T18:12:49.877Z,86.35
2017-07-27T18:15:18.300Z,86.39
2017-07-27T18:17:46.639Z,86.73
2017-07-27T18:20:15.003Z,86.82
2017-07-27T18:22:43.338Z,86.05
2017-07-27T18:25:11.967Z,86.68
2017-07-27T18:27:40.316Z,88.17
2017-07-27T18:30:08.651Z,87.94
2017-07-27T18:32:36.996Z,87.81
2017-07-27T18:35:08.653Z,88.65
2017-07-27T18:37:37.271Z,88.34
2017-07-27T18:40:05.608Z,88.42
2017-07-27T18:42:33.944Z,88.63
2017-07-27T18:45:02.290Z,88.15
2017-07-27T18:47:30.622Z,87.39
2017-07-27T18:49:59.255Z,86.37
2017-07-27T18:52:27.597Z,86.20
2017-07-27T18:54:55.927Z,87.68
2017-07-27T18:57:24.268Z,88.16
2017-07-27T18:59:52.611Z,89.13
2017-07-27T19:02:20.988Z,89.24
2017-07-27T19:04:49.314Z,88.86
2017-07-27T19:07:17.669Z,89.16
2017-07-27T19:09:46.019Z,89.53
2017-07-27T19:12:14.362Z,89.76
2017-07-27T19:14:43.004Z,89.48
2017-07-27T19:17:11.327Z,89.38
2017-07-27T19:19:39.671Z,89.69
2017-07-27T19:22:08.051Z,89.49
2017-07-27T19:24:36.384Z,89.83
2017-07-27T19:27:04.998Z,89.62
2017-07-27T19:29:33.333Z,88.95
2017-07-27T19:32:02.139Z,89.18
2017-07-27T19:34:30.502Z,89.06
2017-07-27T19:36:58.830Z,88.99
2017-07-27T19:39:27.988Z,89.01
2017-07-27T19:41:56.324Z,89.34
2017-07-27T19:44:24.697Z,88.71
2017-07-27T19:46:53.056Z,89.31
2017-07-27T19:49:21.438Z,89.44
2017-07-27T19:51:49.789Z,90.12
2017-07-27T19:54:18.693Z,89.81
2017-07-27T19:56:47.047Z,89.72
2017-07-27T19:59:15.419Z,90.00
2017-07-27T20:01:43.765Z,90.21
2017-07-27T20:04:12.372Z,90.69
2017-07-27T20:06:40.716Z,90.74
2017-07-27T20:09:09.052Z,89.91
2017-07-27T20:11:37.443Z,90.52
2017-07-27T20:14:05.772Z,90.46
2017-07-27T20:16:34.366Z,90.21
2017-07-27T20:19:02.696Z,90.33
2017-07-27T20:21:31.047Z,89.53
2017-07-27T20:23:59.765Z,90.35
2017-07-27T20:26:28.099Z,90.17
2017-07-27T20:28:56.425Z,89.91
2017-07-27T20:31:24.777Z,90.32
2017-07-27T20:33:53.180Z,89.79
2017-07-27T20:36:21.807Z,90.14
2017-07-27T20:38:50.187Z,90.33
2017-07-27T20:41:18.521Z,90.58
2017-07-27T20:43:46.883Z,90.49
2017-07-27T20:46:15.209Z,89.89
2017-07-27T20:48:43.810Z,90.66
2017-07-27T20:51:12.161Z,89.96
2017-07-27T20:53:40.511Z,89.97
2017-07-27T20:56:08.907Z,90.54
2017-07-27T20:58:37.258Z,90.15
2017-07-27T21:01:05.930Z,89.95
2017-07-27T21:03:34.275Z,90.20
2017-07-27T21:06:02.594Z,88.90
2017-07-27T21:08:31.006Z,88.71
2017-07-27T21:10:59.347Z,89.20
2017-07-27T21:13:27.687Z,88.90
2017-07-27T21:15:56.038Z,88.96
2017-07-27T21:18:24.487Z,88.81
2017-07-27T21:20:52.838Z,89.46
2017-07-27T21:23:21.186Z,88.28
2017-07-27T21:25:49.984Z,87.69
2017-07-27T21:28:18.340Z,88.02
2017-07-27T21:30:46.667Z,88.48
2017-07-27T21:33:15.790Z,88.66
2017-07-27T21:35:44.154Z,88.80
2017-07-27T21:38:12.536Z,88.96
2017-07-27T21:40:40.896Z,89.75
2017-07-27T21:43:09.227Z,88.55
2017-07-27T21:45:37.584Z,87.77
2017-07-27T21:48:05.964Z,88.62
2017-07-27T21:50:34.765Z,88.81
2017-07-27T21:53:03.098Z,88.86
2017-07-27T21:55:31.448Z,88.10
2017-07-27T21:57:59.802Z,87.94
2017-07-27T22:00:28.207Z,87.92
2017-07-27T22:02:56.958Z,87.44
2017-07-27T22:05:25.296Z,87.95
2017-07-27T22:07:53.626Z,88.04
2017-07-27T22:10:21.991Z,87.30
2017-07-27T22:12:50.341Z,87.66
2017-07-27T22:15:19.062Z,87.85
2017-07-27T22:17:47.435Z,87.56
2017-07-27T22:20:16.545Z,88.21
2017-07-27T22:22:44.913Z,88.31
2017-07-27T22:25:13.250Z,87.30
2017-07-27T22:27:41.623Z,88.10
2017-07-27T22:30:09.978Z,88.62
2017-07-27T22:32:38.314Z,88.30
2017-07-27T22:35:06.657Z,87.56
2017-07-27T22:37:34.968Z,88.44
2017-07-27T22:40:03.304Z,88.74
2017-07-27T22:42:31.621Z,88.17
2017-07-27T22:44:59.973Z,88.80
2017-07-27T22:47:28.314Z,88.48
2017-07-27T22:49:56.654Z,87.98
2017-07-27T22:52:25.020Z,87.63
2017-07-27T22:54:53.338Z,88.20
2017-07-27T22:57:21.844Z,88.29
2017-07-27T22:59:50.201Z,87.62
2017-07-27T23:02:19.320Z,87.18
2017-07-27T23:04:47.664Z,87.94
2017-07-27T23:07:16.004Z,87.61
2017-07-27T23:09:44.316Z,87.76
2017-07-27T23:12:13.035Z,88.36
2017-07-27T23:14:42.130Z,88.58
2017-07-27T23:17:10.468Z,89.01
2017-07-27T23:19:38.797Z,89.15
2017-07-27T23:22:07.135Z,89.11
2017-07-27T23:24:35.456Z,88.41
2017-07-27T23:27:03.814Z,88.43
2017-07-27T23:29:32.156Z,89.13
2017-07-27T23:32:00.492Z,88.07
2017-07-27T23:34:28.813Z,87.66
2017-07-27T23:36:57.178Z,87.99
2017-07-27T23:39:25.510Z,88.15
2017-07-27T23:41:53.849Z,88.55
2017-07-27T23:44:22.177Z,88.87
2017-07-27T23:46:50.534Z,87.79
2017-07-27T23:49:18.865Z,88.60
2017-07-27T23:51:47.197Z,88.74
2017-07-27T23:54:15.567Z,88.90
2017-07-27T23:56:43.912Z,88.49
2017-07-27T23:59:12.263Z,88.32
